sensor_id;sensor_type;location;lat;lon;timestamp;temperature;humidity
44982;DHT22;30716;41.740;-70.400;2023-05-27T00:02:22;23.90;46.30
44982;DHT22;30716;41.740;-70.400;2023-05-27T00:04:48;23.90;46.30
44982;DHT22;30716;41.740;-70.400;2023-05-27T00:07:15;24.00;46.40
44982;DHT22;30716;41.740;-70.400;2023-05-27T00:09:41;24.00;46.50
44982;DHT22;30716;41.740;-70.400;2023-05-27T00:12:07;24.00;46.40
44982;DHT22;30716;41.740;-70.400;2023-05-27T00:14:34;24.00;46.40
44982;DHT22;30716;41.740;-70.400;2023-05-27T00:17:00;24.00;46.40
44982;DHT22;30716;41.740;-70.400;2023-05-27T00:19:27;24.00;46.40
44982;DHT22;30716;41.740;-70.400;2023-05-27T00:21:55;24.00;46.40
44982;DHT22;30716;41.740;-70.400;2023-05-27T00:24:22;24.00;46.50
44982;DHT22;30716;41.740;-70.400;2023-05-27T00:26:48;24.00;46.40
44982;DHT22;30716;41.740;-70.400;2023-05-27T00:29:16;24.00;46.40
44982;DHT22;30716;41.740;-70.400;2023-05-27T00:31:43;24.00;46.40
44982;DHT22;30716;41.740;-70.400;2023-05-27T00:34:11;24.00;46.40
44982;DHT22;30716;41.740;-70.400;2023-05-27T00:36:37;24.00;46.40
44982;DHT22;30716;41.740;-70.400;2023-05-27T00:39:03;24.00;46.40
44982;DHT22;30716;41.740;-70.400;2023-05-27T00:41:31;24.00;46.40
44982;DHT22;30716;41.740;-70.400;2023-05-27T00:43:58;24.00;46.40
44982;DHT22;30716;41.740;-70.400;2023-05-27T00:46:24;24.00;46.40
44982;DHT22;30716;41.740;-70.400;2023-05-27T00:48:50;24.00;46.40
44982;DHT22;30716;41.740;-70.400;2023-05-27T00:51:17;24.00;46.40
44982;DHT22;30716;41.740;-70.400;2023-05-27T00:53:43;24.00;46.50
44982;DHT22;30716;41.740;-70.400;2023-05-27T00:56:11;24.00;46.40
44982;DHT22;30716;41.740;-70.400;2023-05-27T00:58:43;24.00;46.40
44982;DHT22;30716;41.740;-70.400;2023-05-27T01:01:09;24.00;46.40
44982;DHT22;30716;41.740;-70.400;2023-05-27T01:03:35;24.00;46.40
44982;DHT22;30716;41.740;-70.400;2023-05-27T01:06:42;24.00;46.40
44982;DHT22;30716;41.740;-70.400;2023-05-27T01:09:44;24.00;46.50
44982;DHT22;30716;41.740;-70.400;2023-05-27T01:12:20;24.10;46.50
44982;DHT22;30716;41.740;-70.400;2023-05-27T01:14:49;24.10;46.50
44982;DHT22;30716;41.740;-70.400;2023-05-27T01:17:17;24.00;46.40
44982;DHT22;30716;41.740;-70.400;2023-05-27T01:19:47;24.00;46.40
44982;DHT22;30716;41.740;-70.400;2023-05-27T01:22:14;24.10;46.50
44982;DHT22;30716;41.740;-70.400;2023-05-27T01:24:42;24.00;46.40
44982;DHT22;30716;41.740;-70.400;2023-05-27T01:27:11;24.00;46.40
44982;DHT22;30716;41.740;-70.400;2023-05-27T01:29:40;24.00;46.40
44982;DHT22;30716;41.740;-70.400;2023-05-27T01:35:50;24.00;46.50
44982;DHT22;30716;41.740;-70.400;2023-05-27T01:38:16;24.10;46.50
44982;DHT22;30716;41.740;-70.400;2023-05-27T01:40:44;24.10;46.50
44982;DHT22;30716;41.740;-70.400;2023-05-27T01:43:13;24.10;46.50
44982;DHT22;30716;41.740;-70.400;2023-05-27T01:45:39;24.10;46.50
44982;DHT22;30716;41.740;-70.400;2023-05-27T01:48:08;24.10;46.50
44982;DHT22;30716;41.740;-70.400;2023-05-27T01:50:35;24.10;46.50
44982;DHT22;30716;41.740;-70.400;2023-05-27T01:53:04;24.10;46.50
44982;DHT22;30716;41.740;-70.400;2023-05-27T01:55:30;24.10;46.50
44982;DHT22;30716;41.740;-70.400;2023-05-27T01:57:57;24.10;46.50
44982;DHT22;30716;41.740;-70.400;2023-05-27T02:00:26;24.10;46.50
44982;DHT22;30716;41.740;-70.400;2023-05-27T02:02:52;24.10;46.50
44982;DHT22;30716;41.740;-70.400;2023-05-27T02:05:20;24.10;46.50
44982;DHT22;30716;41.740;-70.400;2023-05-27T02:07:46;24.10;46.50
44982;DHT22;30716;41.740;-70.400;2023-05-27T02:10:12;24.10;46.50
44982;DHT22;30716;41.740;-70.400;2023-05-27T02:12:39;24.10;46.50
44982;DHT22;30716;41.740;-70.400;2023-05-27T02:15:06;24.10;46.50
44982;DHT22;30716;41.740;-70.400;2023-05-27T02:17:33;24.10;46.50
44982;DHT22;30716;41.740;-70.400;2023-05-27T02:20:01;24.10;46.50
44982;DHT22;30716;41.740;-70.400;2023-05-27T02:22:29;24.10;46.50
44982;DHT22;30716;41.740;-70.400;2023-05-27T02:24:56;24.10;46.50
44982;DHT22;30716;41.740;-70.400;2023-05-27T02:27:23;24.10;46.50
44982;DHT22;30716;41.740;-70.400;2023-05-27T02:29:49;24.10;46.50
44982;DHT22;30716;41.740;-70.400;2023-05-27T02:32:15;24.10;47.30
44982;DHT22;30716;41.740;-70.400;2023-05-27T02:34:42;24.10;46.50
44982;DHT22;30716;41.740;-70.400;2023-05-27T02:37:09;24.10;46.50
44982;DHT22;30716;41.740;-70.400;2023-05-27T02:39:37;24.10;46.50
44982;DHT22;30716;41.740;-70.400;2023-05-27T02:42:04;24.10;46.50
44982;DHT22;30716;41.740;-70.400;2023-05-27T02:44:30;24.10;46.50
44982;DHT22;30716;41.740;-70.400;2023-05-27T02:46:56;24.10;46.50
44982;DHT22;30716;41.740;-70.400;2023-05-27T02:49:23;24.10;46.50
44982;DHT22;30716;41.740;-70.400;2023-05-27T02:51:49;24.10;46.50
44982;DHT22;30716;41.740;-70.400;2023-05-27T02:54:15;24.10;46.50
44982;DHT22;30716;41.740;-70.400;2023-05-27T02:56:42;24.10;46.60
44982;DHT22;30716;41.740;-70.400;2023-05-27T02:59:09;24.10;46.50
44982;DHT22;30716;41.740;-70.400;2023-05-27T03:01:35;24.10;46.50
44982;DHT22;30716;41.740;-70.400;2023-05-27T03:04:03;24.10;46.50
44982;DHT22;30716;41.740;-70.400;2023-05-27T03:06:29;24.10;46.50
44982;DHT22;30716;41.740;-70.400;2023-05-27T03:08:56;24.10;47.30
44982;DHT22;30716;41.740;-70.400;2023-05-27T03:11:22;24.10;46.50
44982;DHT22;30716;41.740;-70.400;2023-05-27T03:13:48;24.10;46.50
44982;DHT22;30716;41.740;-70.400;2023-05-27T03:16:14;24.10;46.50
44982;DHT22;30716;41.740;-70.400;2023-05-27T03:18:41;24.10;46.50
44982;DHT22;30716;41.740;-70.400;2023-05-27T03:21:07;24.10;46.60
44982;DHT22;30716;41.740;-70.400;2023-05-27T03:23:33;24.10;46.50
44982;DHT22;30716;41.740;-70.400;2023-05-27T03:25:59;24.10;46.50
44982;DHT22;30716;41.740;-70.400;2023-05-27T03:28:25;24.10;46.50
44982;DHT22;30716;41.740;-70.400;2023-05-27T03:30:52;24.10;46.50
44982;DHT22;30716;41.740;-70.400;2023-05-27T03:33:23;24.10;46.50
44982;DHT22;30716;41.740;-70.400;2023-05-27T03:35:49;24.10;46.50
44982;DHT22;30716;41.740;-70.400;2023-05-27T03:38:15;24.10;46.60
44982;DHT22;30716;41.740;-70.400;2023-05-27T03:40:42;24.10;46.50
44982;DHT22;30716;41.740;-70.400;2023-05-27T03:43:08;24.10;46.50
44982;DHT22;30716;41.740;-70.400;2023-05-27T03:45:34;24.10;46.50
44982;DHT22;30716;41.740;-70.400;2023-05-27T03:48:00;24.10;46.50
44982;DHT22;30716;41.740;-70.400;2023-05-27T03:50:27;24.10;46.60
44982;DHT22;30716;41.740;-70.400;2023-05-27T03:52:53;24.10;46.50
44982;DHT22;30716;41.740;-70.400;2023-05-27T03:55:19;24.10;46.50
44982;DHT22;30716;41.740;-70.400;2023-05-27T03:57:48;24.10;46.50
44982;DHT22;30716;41.740;-70.400;2023-05-27T04:00:15;24.00;46.40
44982;DHT22;30716;41.740;-70.400;2023-05-27T04:02:43;24.10;46.50
44982;DHT22;30716;41.740;-70.400;2023-05-27T04:05:10;24.10;46.50
44982;DHT22;30716;41.740;-70.400;2023-05-27T04:07:42;24.10;46.50
44982;DHT22;30716;41.740;-70.400;2023-05-27T04:10:08;24.10;46.50
44982;DHT22;30716;41.740;-70.400;2023-05-27T04:12:36;24.10;46.50
44982;DHT22;30716;41.740;-70.400;2023-05-27T04:15:02;24.10;46.50
44982;DHT22;30716;41.740;-70.400;2023-05-27T04:17:28;24.10;46.50
44982;DHT22;30716;41.740;-70.400;2023-05-27T04:19:55;24.10;46.50
44982;DHT22;30716;41.740;-70.400;2023-05-27T04:22:22;24.10;46.50
44982;DHT22;30716;41.740;-70.400;2023-05-27T04:24:48;24.10;46.50
44982;DHT22;30716;41.740;-70.400;2023-05-27T04:27:14;24.10;46.50
44982;DHT22;30716;41.740;-70.400;2023-05-27T04:29:42;24.10;46.60
44982;DHT22;30716;41.740;-70.400;2023-05-27T04:32:11;24.10;46.50
44982;DHT22;30716;41.740;-70.400;2023-05-27T04:34:38;24.10;46.50
44982;DHT22;30716;41.740;-70.400;2023-05-27T04:37:07;24.10;46.50
44982;DHT22;30716;41.740;-70.400;2023-05-27T04:39:36;24.10;46.50
44982;DHT22;30716;41.740;-70.400;2023-05-27T04:42:02;24.10;46.50
44982;DHT22;30716;41.740;-70.400;2023-05-27T04:44:29;24.10;46.50
44982;DHT22;30716;41.740;-70.400;2023-05-27T04:46:55;24.10;46.50
44982;DHT22;30716;41.740;-70.400;2023-05-27T04:49:21;24.10;46.50
44982;DHT22;30716;41.740;-70.400;2023-05-27T04:51:48;24.10;46.50
44982;DHT22;30716;41.740;-70.400;2023-05-27T04:54:14;24.10;46.50
44982;DHT22;30716;41.740;-70.400;2023-05-27T04:56:40;24.10;46.50
44982;DHT22;30716;41.740;-70.400;2023-05-27T04:59:07;24.10;46.50
44982;DHT22;30716;41.740;-70.400;2023-05-27T05:01:33;24.10;46.50
44982;DHT22;30716;41.740;-70.400;2023-05-27T05:04:19;24.10;46.50
44982;DHT22;30716;41.740;-70.400;2023-05-27T05:06:46;24.10;46.50
44982;DHT22;30716;41.740;-70.400;2023-05-27T05:09:12;24.10;46.50
44982;DHT22;30716;41.740;-70.400;2023-05-27T05:11:38;24.10;46.50
44982;DHT22;30716;41.740;-70.400;2023-05-27T05:14:04;24.10;46.60
44982;DHT22;30716;41.740;-70.400;2023-05-27T05:16:31;24.10;46.50
44982;DHT22;30716;41.740;-70.400;2023-05-27T05:18:57;24.10;46.50
44982;DHT22;30716;41.740;-70.400;2023-05-27T05:21:23;24.10;46.50
44982;DHT22;30716;41.740;-70.400;2023-05-27T05:23:49;24.10;46.50
44982;DHT22;30716;41.740;-70.400;2023-05-27T05:26:16;24.10;46.50
44982;DHT22;30716;41.740;-70.400;2023-05-27T05:28:42;24.10;46.50
44982;DHT22;30716;41.740;-70.400;2023-05-27T05:31:08;24.10;46.50
44982;DHT22;30716;41.740;-70.400;2023-05-27T05:33:35;24.10;46.50
44982;DHT22;30716;41.740;-70.400;2023-05-27T05:36:01;24.10;46.50
44982;DHT22;30716;41.740;-70.400;2023-05-27T05:38:28;24.10;46.50
44982;DHT22;30716;41.740;-70.400;2023-05-27T05:40:57;24.10;46.50
44982;DHT22;30716;41.740;-70.400;2023-05-27T05:43:23;24.10;46.50
44982;DHT22;30716;41.740;-70.400;2023-05-27T05:45:49;24.10;46.50
44982;DHT22;30716;41.740;-70.400;2023-05-27T05:48:17;24.10;46.50
44982;DHT22;30716;41.740;-70.400;2023-05-27T05:50:43;24.10;46.50
44982;DHT22;30716;41.740;-70.400;2023-05-27T05:53:10;24.10;46.50
44982;DHT22;30716;41.740;-70.400;2023-05-27T05:55:36;24.10;46.50
44982;DHT22;30716;41.740;-70.400;2023-05-27T05:58:04;24.10;46.50
44982;DHT22;30716;41.740;-70.400;2023-05-27T06:00:30;24.10;46.50
44982;DHT22;30716;41.740;-70.400;2023-05-27T06:02:56;24.10;46.50
44982;DHT22;30716;41.740;-70.400;2023-05-27T06:05:23;24.10;46.50
44982;DHT22;30716;41.740;-70.400;2023-05-27T06:07:52;24.10;46.50
44982;DHT22;30716;41.740;-70.400;2023-05-27T06:10:19;24.10;46.50
44982;DHT22;30716;41.740;-70.400;2023-05-27T06:12:45;24.10;46.50
44982;DHT22;30716;41.740;-70.400;2023-05-27T06:15:12;24.10;46.50
44982;DHT22;30716;41.740;-70.400;2023-05-27T06:17:38;24.10;46.50
44982;DHT22;30716;41.740;-70.400;2023-05-27T06:20:04;24.10;46.50
44982;DHT22;30716;41.740;-70.400;2023-05-27T06:22:32;24.10;46.50
44982;DHT22;30716;41.740;-70.400;2023-05-27T06:24:58;24.10;46.50
44982;DHT22;30716;41.740;-70.400;2023-05-27T06:27:24;24.10;46.50
44982;DHT22;30716;41.740;-70.400;2023-05-27T06:29:50;24.10;46.50
44982;DHT22;30716;41.740;-70.400;2023-05-27T06:32:16;24.10;46.50
44982;DHT22;30716;41.740;-70.400;2023-05-27T06:34:43;24.10;46.50
44982;DHT22;30716;41.740;-70.400;2023-05-27T06:37:09;24.10;46.50
44982;DHT22;30716;41.740;-70.400;2023-05-27T06:39:35;24.10;46.50
44982;DHT22;30716;41.740;-70.400;2023-05-27T06:42:01;24.10;46.50
44982;DHT22;30716;41.740;-70.400;2023-05-27T06:44:27;24.10;46.50
44982;DHT22;30716;41.740;-70.400;2023-05-27T06:46:53;24.10;46.50
44982;DHT22;30716;41.740;-70.400;2023-05-27T06:49:19;24.10;46.50
44982;DHT22;30716;41.740;-70.400;2023-05-27T06:51:46;24.10;46.50
44982;DHT22;30716;41.740;-70.400;2023-05-27T06:54:12;24.10;46.50
44982;DHT22;30716;41.740;-70.400;2023-05-27T06:56:38;24.10;46.50
44982;DHT22;30716;41.740;-70.400;2023-05-27T06:59:04;24.10;46.50
44982;DHT22;30716;41.740;-70.400;2023-05-27T07:01:31;24.10;46.50
44982;DHT22;30716;41.740;-70.400;2023-05-27T07:03:57;24.20;46.60
44982;DHT22;30716;41.740;-70.400;2023-05-27T07:06:24;24.20;46.60
44982;DHT22;30716;41.740;-70.400;2023-05-27T07:08:50;24.20;46.60
44982;DHT22;30716;41.740;-70.400;2023-05-27T07:11:16;24.20;46.60
44982;DHT22;30716;41.740;-70.400;2023-05-27T07:13:43;24.20;46.60
44982;DHT22;30716;41.740;-70.400;2023-05-27T07:16:09;24.20;46.60
44982;DHT22;30716;41.740;-70.400;2023-05-27T07:18:36;24.10;46.50
44982;DHT22;30716;41.740;-70.400;2023-05-27T07:21:02;24.20;46.60
44982;DHT22;30716;41.740;-70.400;2023-05-27T07:23:29;24.10;46.50
44982;DHT22;30716;41.740;-70.400;2023-05-27T07:25:55;24.20;46.60
44982;DHT22;30716;41.740;-70.400;2023-05-27T07:28:21;24.20;46.70
44982;DHT22;30716;41.740;-70.400;2023-05-27T07:30:47;24.20;46.60
44982;DHT22;30716;41.740;-70.400;2023-05-27T07:33:14;24.10;46.50
44982;DHT22;30716;41.740;-70.400;2023-05-27T07:35:40;24.20;46.60
44982;DHT22;30716;41.740;-70.400;2023-05-27T07:38:06;24.20;46.60
44982;DHT22;30716;41.740;-70.400;2023-05-27T07:40:32;24.20;46.60
44982;DHT22;30716;41.740;-70.400;2023-05-27T07:42:59;24.20;46.60
44982;DHT22;30716;41.740;-70.400;2023-05-27T07:45:25;24.20;46.60
44982;DHT22;30716;41.740;-70.400;2023-05-27T07:47:52;24.10;46.50
44982;DHT22;30716;41.740;-70.400;2023-05-27T07:50:18;24.20;46.60
44982;DHT22;30716;41.740;-70.400;2023-05-27T07:52:44;24.10;46.50
44982;DHT22;30716;41.740;-70.400;2023-05-27T07:55:11;24.10;46.60
44982;DHT22;30716;41.740;-70.400;2023-05-27T07:57:37;24.10;46.50
44982;DHT22;30716;41.740;-70.400;2023-05-27T08:00:04;24.10;46.50
44982;DHT22;30716;41.740;-70.400;2023-05-27T08:02:32;24.10;46.50
44982;DHT22;30716;41.740;-70.400;2023-05-27T08:04:58;24.10;46.50
44982;DHT22;30716;41.740;-70.400;2023-05-27T08:07:25;24.10;46.50
44982;DHT22;30716;41.740;-70.400;2023-05-27T08:09:51;24.10;46.50
44982;DHT22;30716;41.740;-70.400;2023-05-27T08:12:17;24.10;46.50
44982;DHT22;30716;41.740;-70.400;2023-05-27T08:14:43;24.10;46.50
44982;DHT22;30716;41.740;-70.400;2023-05-27T08:17:10;24.20;46.60
44982;DHT22;30716;41.740;-70.400;2023-05-27T08:19:36;24.20;46.60
44982;DHT22;30716;41.740;-70.400;2023-05-27T08:22:03;24.10;47.20
44982;DHT22;30716;41.740;-70.400;2023-05-27T08:24:29;24.10;46.50
44982;DHT22;30716;41.740;-70.400;2023-05-27T08:26:57;24.10;46.50
44982;DHT22;30716;41.740;-70.400;2023-05-27T08:29:23;24.10;46.50
44982;DHT22;30716;41.740;-70.400;2023-05-27T08:31:51;24.10;46.50
44982;DHT22;30716;41.740;-70.400;2023-05-27T08:34:19;24.20;46.60
44982;DHT22;30716;41.740;-70.400;2023-05-27T08:36:45;24.10;46.50
44982;DHT22;30716;41.740;-70.400;2023-05-27T08:39:11;24.10;46.50
44982;DHT22;30716;41.740;-70.400;2023-05-27T08:41:39;24.10;46.50
44982;DHT22;30716;41.740;-70.400;2023-05-27T08:44:06;24.10;46.50
44982;DHT22;30716;41.740;-70.400;2023-05-27T08:46:32;24.10;46.50
44982;DHT22;30716;41.740;-70.400;2023-05-27T08:48:59;24.10;46.50
44982;DHT22;30716;41.740;-70.400;2023-05-27T08:51:26;24.10;46.50
44982;DHT22;30716;41.740;-70.400;2023-05-27T08:53:53;24.10;46.50
44982;DHT22;30716;41.740;-70.400;2023-05-27T08:56:19;24.10;46.50
44982;DHT22;30716;41.740;-70.400;2023-05-27T08:58:51;24.10;46.50
44982;DHT22;30716;41.740;-70.400;2023-05-27T09:01:21;24.10;46.50
44982;DHT22;30716;41.740;-70.400;2023-05-27T09:03:47;24.10;46.50
44982;DHT22;30716;41.740;-70.400;2023-05-27T09:06:13;24.20;46.60
44982;DHT22;30716;41.740;-70.400;2023-05-27T09:08:40;24.10;46.50
44982;DHT22;30716;41.740;-70.400;2023-05-27T09:11:06;24.20;46.60
44982;DHT22;30716;41.740;-70.400;2023-05-27T09:13:35;24.20;46.60
44982;DHT22;30716;41.740;-70.400;2023-05-27T09:16:03;24.20;46.60
44982;DHT22;30716;41.740;-70.400;2023-05-27T09:18:32;24.20;46.60
44982;DHT22;30716;41.740;-70.400;2023-05-27T09:20:59;24.20;46.60
44982;DHT22;30716;41.740;-70.400;2023-05-27T09:23:26;24.20;46.60
44982;DHT22;30716;41.740;-70.400;2023-05-27T09:25:53;24.20;46.60
44982;DHT22;30716;41.740;-70.400;2023-05-27T09:28:23;24.20;46.60
44982;DHT22;30716;41.740;-70.400;2023-05-27T09:31:09;24.20;46.50
44982;DHT22;30716;41.740;-70.400;2023-05-27T09:33:38;24.20;46.60
44982;DHT22;30716;41.740;-70.400;2023-05-27T09:36:06;24.20;46.60
44982;DHT22;30716;41.740;-70.400;2023-05-27T09:38:34;24.20;46.60
44982;DHT22;30716;41.740;-70.400;2023-05-27T09:41:01;24.20;46.60
44982;DHT22;30716;41.740;-70.400;2023-05-27T09:43:28;24.20;46.60
44982;DHT22;30716;41.740;-70.400;2023-05-27T09:46:03;24.20;46.60
44982;DHT22;30716;41.740;-70.400;2023-05-27T09:48:34;24.10;46.50
44982;DHT22;30716;41.740;-70.400;2023-05-27T09:51:03;24.10;46.50
44982;DHT22;30716;41.740;-70.400;2023-05-27T09:53:29;24.10;46.50
44982;DHT22;30716;41.740;-70.400;2023-05-27T09:55:57;24.10;46.50
44982;DHT22;30716;41.740;-70.400;2023-05-27T09:58:24;24.20;46.60
44982;DHT22;30716;41.740;-70.400;2023-05-27T10:00:50;24.20;46.60
44982;DHT22;30716;41.740;-70.400;2023-05-27T10:03:21;24.10;46.50
44982;DHT22;30716;41.740;-70.400;2023-05-27T10:05:49;24.10;46.50
44982;DHT22;30716;41.740;-70.400;2023-05-27T10:08:17;24.20;46.40
44982;DHT22;30716;41.740;-70.400;2023-05-27T10:10:44;24.20;46.40
44982;DHT22;30716;41.740;-70.400;2023-05-27T10:13:13;24.20;46.40
44982;DHT22;30716;41.740;-70.400;2023-05-27T10:15:46;24.10;46.50
44982;DHT22;30716;41.740;-70.400;2023-05-27T10:18:27;24.10;46.50
44982;DHT22;30716;41.740;-70.400;2023-05-27T10:20:57;24.10;46.40
44982;DHT22;30716;41.740;-70.400;2023-05-27T10:23:30;24.10;46.50
44982;DHT22;30716;41.740;-70.400;2023-05-27T10:26:05;24.20;46.60
44982;DHT22;30716;41.740;-70.400;2023-05-27T10:28:36;24.10;46.50
44982;DHT22;30716;41.740;-70.400;2023-05-27T10:31:17;24.10;46.50
44982;DHT22;30716;41.740;-70.400;2023-05-27T10:33:48;24.10;46.50
44982;DHT22;30716;41.740;-70.400;2023-05-27T10:36:15;24.10;46.50
44982;DHT22;30716;41.740;-70.400;2023-05-27T10:38:43;24.10;46.00
44982;DHT22;30716;41.740;-70.400;2023-05-27T10:41:20;24.10;46.10
44982;DHT22;30716;41.740;-70.400;2023-05-27T10:44:00;24.10;46.50
44982;DHT22;30716;41.740;-70.400;2023-05-27T10:46:37;24.10;46.10
44982;DHT22;30716;41.740;-70.400;2023-05-27T10:49:22;24.10;46.40
44982;DHT22;30716;41.740;-70.400;2023-05-27T10:51:49;24.20;45.90
44982;DHT22;30716;41.740;-70.400;2023-05-27T10:54:16;24.20;46.00
44982;DHT22;30716;41.740;-70.400;2023-05-27T10:56:51;24.20;45.90
44982;DHT22;30716;41.740;-70.400;2023-05-27T10:59:22;24.10;45.80
44982;DHT22;30716;41.740;-70.400;2023-05-27T11:01:52;24.10;45.90
44982;DHT22;30716;41.740;-70.400;2023-05-27T11:04:19;24.10;46.00
44982;DHT22;30716;41.740;-70.400;2023-05-27T11:06:57;24.20;46.00
44982;DHT22;30716;41.740;-70.400;2023-05-27T11:09:25;24.20;46.00
44982;DHT22;30716;41.740;-70.400;2023-05-27T11:11:54;24.10;46.00
44982;DHT22;30716;41.740;-70.400;2023-05-27T11:14:21;24.20;46.00
44982;DHT22;30716;41.740;-70.400;2023-05-27T11:16:50;24.20;45.80
44982;DHT22;30716;41.740;-70.400;2023-05-27T11:19:23;24.20;45.90
44982;DHT22;30716;41.740;-70.400;2023-05-27T11:21:50;24.10;46.00
44982;DHT22;30716;41.740;-70.400;2023-05-27T11:24:17;24.10;45.80
44982;DHT22;30716;41.740;-70.400;2023-05-27T11:26:45;24.10;45.70
44982;DHT22;30716;41.740;-70.400;2023-05-27T11:29:13;24.10;46.30
44982;DHT22;30716;41.740;-70.400;2023-05-27T11:31:45;24.10;45.70
44982;DHT22;30716;41.740;-70.400;2023-05-27T11:34:13;24.10;46.20
44982;DHT22;30716;41.740;-70.400;2023-05-27T11:36:40;24.10;46.00
44982;DHT22;30716;41.740;-70.400;2023-05-27T11:39:13;24.10;45.80
44982;DHT22;30716;41.740;-70.400;2023-05-27T11:41:50;24.10;45.80
44982;DHT22;30716;41.740;-70.400;2023-05-27T11:44:18;24.10;45.80
44982;DHT22;30716;41.740;-70.400;2023-05-27T11:46:45;24.10;46.00
44982;DHT22;30716;41.740;-70.400;2023-05-27T11:49:13;24.10;45.90
44982;DHT22;30716;41.740;-70.400;2023-05-27T11:51:41;24.10;45.90
44982;DHT22;30716;41.740;-70.400;2023-05-27T11:54:18;24.10;45.90
44982;DHT22;30716;41.740;-70.400;2023-05-27T11:56:44;24.10;45.90
44982;DHT22;30716;41.740;-70.400;2023-05-27T11:59:11;24.10;46.00
44982;DHT22;30716;41.740;-70.400;2023-05-27T12:01:41;24.10;45.90
44982;DHT22;30716;41.740;-70.400;2023-05-27T12:04:08;24.10;46.20
44982;DHT22;30716;41.740;-70.400;2023-05-27T12:06:36;24.10;46.00
44982;DHT22;30716;41.740;-70.400;2023-05-27T12:09:04;24.10;45.90
44982;DHT22;30716;41.740;-70.400;2023-05-27T12:11:31;24.00;45.60
44982;DHT22;30716;41.740;-70.400;2023-05-27T12:13:57;24.00;45.50
44982;DHT22;30716;41.740;-70.400;2023-05-27T12:16:24;24.00;45.80
44982;DHT22;30716;41.740;-70.400;2023-05-27T12:18:51;24.00;45.60
44982;DHT22;30716;41.740;-70.400;2023-05-27T12:21:19;24.10;45.60
44982;DHT22;30716;41.740;-70.400;2023-05-27T12:23:47;24.00;45.30
44982;DHT22;30716;41.740;-70.400;2023-05-27T12:26:14;24.00;45.40
44982;DHT22;30716;41.740;-70.400;2023-05-27T12:28:42;24.00;45.20
44982;DHT22;30716;41.740;-70.400;2023-05-27T12:31:08;24.00;45.70
44982;DHT22;30716;41.740;-70.400;2023-05-27T12:33:34;24.00;45.80
44982;DHT22;30716;41.740;-70.400;2023-05-27T12:36:01;24.10;46.00
44982;DHT22;30716;41.740;-70.400;2023-05-27T12:38:28;24.10;45.70
44982;DHT22;30716;41.740;-70.400;2023-05-27T12:40:54;24.10;45.90
44982;DHT22;30716;41.740;-70.400;2023-05-27T12:43:24;24.10;46.00
44982;DHT22;30716;41.740;-70.400;2023-05-27T12:45:50;24.10;45.70
44982;DHT22;30716;41.740;-70.400;2023-05-27T12:48:18;24.00;45.90
44982;DHT22;30716;41.740;-70.400;2023-05-27T12:50:44;24.10;45.80
44982;DHT22;30716;41.740;-70.400;2023-05-27T12:53:11;24.10;45.80
44982;DHT22;30716;41.740;-70.400;2023-05-27T12:55:38;24.00;45.70
44982;DHT22;30716;41.740;-70.400;2023-05-27T12:58:05;24.00;45.80
44982;DHT22;30716;41.740;-70.400;2023-05-27T13:00:32;24.00;46.20
44982;DHT22;30716;41.740;-70.400;2023-05-27T13:03:00;23.90;45.60
44982;DHT22;30716;41.740;-70.400;2023-05-27T13:05:26;23.90;45.30
44982;DHT22;30716;41.740;-70.400;2023-05-27T13:07:59;23.90;45.40
44982;DHT22;30716;41.740;-70.400;2023-05-27T13:10:25;23.90;45.40
44982;DHT22;30716;41.740;-70.400;2023-05-27T13:12:52;23.80;46.20
44982;DHT22;30716;41.740;-70.400;2023-05-27T13:15:19;23.80;46.20
44982;DHT22;30716;41.740;-70.400;2023-05-27T13:17:47;23.80;46.30
44982;DHT22;30716;41.740;-70.400;2023-05-27T13:20:14;23.80;46.20
44982;DHT22;30716;41.740;-70.400;2023-05-27T13:22:42;23.80;46.20
44982;DHT22;30716;41.740;-70.400;2023-05-27T13:25:10;23.80;46.20
44982;DHT22;30716;41.740;-70.400;2023-05-27T13:27:40;23.80;46.20
44982;DHT22;30716;41.740;-70.400;2023-05-27T13:30:12;23.80;46.20
44982;DHT22;30716;41.740;-70.400;2023-05-27T13:32:44;23.90;46.30
44982;DHT22;30716;41.740;-70.400;2023-05-27T13:35:11;23.90;46.30
44982;DHT22;30716;41.740;-70.400;2023-05-27T13:37:40;23.90;46.40
44982;DHT22;30716;41.740;-70.400;2023-05-27T13:40:08;23.90;46.00
44982;DHT22;30716;41.740;-70.400;2023-05-27T13:42:35;23.90;46.40
44982;DHT22;30716;41.740;-70.400;2023-05-27T13:45:02;23.80;46.20
44982;DHT22;30716;41.740;-70.400;2023-05-27T13:47:28;23.80;46.30
44982;DHT22;30716;41.740;-70.400;2023-05-27T13:49:54;23.80;46.20
44982;DHT22;30716;41.740;-70.400;2023-05-27T13:52:21;23.70;46.10
44982;DHT22;30716;41.740;-70.400;2023-05-27T13:54:47;23.80;46.20
44982;DHT22;30716;41.740;-70.400;2023-05-27T13:57:13;23.70;45.90
44982;DHT22;30716;41.740;-70.400;2023-05-27T13:59:40;23.70;45.80
44982;DHT22;30716;41.740;-70.400;2023-05-27T14:02:06;23.70;46.10
44982;DHT22;30716;41.740;-70.400;2023-05-27T14:04:35;23.80;46.30
44982;DHT22;30716;41.740;-70.400;2023-05-27T14:07:01;23.80;46.30
44982;DHT22;30716;41.740;-70.400;2023-05-27T14:09:28;23.80;46.20
44982;DHT22;30716;41.740;-70.400;2023-05-27T14:11:55;23.80;46.10
44982;DHT22;30716;41.740;-70.400;2023-05-27T14:14:21;23.80;46.20
44982;DHT22;30716;41.740;-70.400;2023-05-27T14:16:47;23.80;46.20
44982;DHT22;30716;41.740;-70.400;2023-05-27T14:19:14;23.80;46.20
44982;DHT22;30716;41.740;-70.400;2023-05-27T14:21:40;23.80;46.20
44982;DHT22;30716;41.740;-70.400;2023-05-27T14:24:06;23.80;46.20
44982;DHT22;30716;41.740;-70.400;2023-05-27T14:26:32;23.80;46.30
44982;DHT22;30716;41.740;-70.400;2023-05-27T14:28:58;23.90;46.40
44982;DHT22;30716;41.740;-70.400;2023-05-27T14:31:25;23.80;46.30
44982;DHT22;30716;41.740;-70.400;2023-05-27T14:33:52;23.90;46.30
44982;DHT22;30716;41.740;-70.400;2023-05-27T14:36:18;23.90;46.30
44982;DHT22;30716;41.740;-70.400;2023-05-27T14:38:45;23.90;46.30
44982;DHT22;30716;41.740;-70.400;2023-05-27T14:41:11;23.90;46.40
44982;DHT22;30716;41.740;-70.400;2023-05-27T14:43:37;23.90;46.20
44982;DHT22;30716;41.740;-70.400;2023-05-27T14:46:04;23.80;46.30
44982;DHT22;30716;41.740;-70.400;2023-05-27T14:48:30;23.80;46.30
44982;DHT22;30716;41.740;-70.400;2023-05-27T14:50:56;23.80;46.20
44982;DHT22;30716;41.740;-70.400;2023-05-27T14:53:23;23.80;46.30
44982;DHT22;30716;41.740;-70.400;2023-05-27T14:55:51;23.70;46.10
44982;DHT22;30716;41.740;-70.400;2023-05-27T14:58:18;23.70;46.20
44982;DHT22;30716;41.740;-70.400;2023-05-27T15:00:45;23.70;46.10
44982;DHT22;30716;41.740;-70.400;2023-05-27T15:03:12;23.80;46.20
44982;DHT22;30716;41.740;-70.400;2023-05-27T15:05:39;23.80;46.20
44982;DHT22;30716;41.740;-70.400;2023-05-27T15:08:05;23.80;46.20
44982;DHT22;30716;41.740;-70.400;2023-05-27T15:10:35;23.70;46.10